Time;durP1;ratioP1;P1;durP2;ratioP2;P2;SDS_P1;SDS_P2;PMS_P1;PMS_P2;Temp;Humidity;BMP_temperature;BMP_pressure;BME280_temperature;BME280_humidity;BME280_pressure;Samples;Min_cycle;Max_cycle;Signal;HPM_P1;HPM_P2
2023/03/23 00:01:46;;;;;;;;;;;11.70;89.80;;;;;;5135257;28;19915;-69
2023/03/23 00:04:13;;;;;;;;;;;11.80;89.80;;;;;;5135213;28;19915;-69
2023/03/23 00:06:39;;;;;;;;;;;11.80;89.80;;;;;;5135693;28;19922;-69
2023/03/23 00:09:05;;;;;;;;;;;11.90;89.80;;;;;;5135135;28;19955;-69
2023/03/23 00:11:31;;;;;;;;;;;11.70;89.70;;;;;;5135058;28;19957;-70
2023/03/23 00:14:00;;;;;;;;;;;11.80;89.80;;;;;;5098665;28;19922;-69
2023/03/23 00:16:31;;;;;;;;;;;11.80;89.70;;;;;;5134894;28;19915;-69
2023/03/23 00:18:58;;;;;;;;;;;11.90;89.80;;;;;;5134806;28;19919;-70
2023/03/23 00:21:33;;;;;;;;;;;11.80;89.70;;;;;;5114905;28;19939;-69
2023/03/23 00:24:00;;;;;;;;;;;11.70;89.70;;;;;;5134825;28;19915;-69
2023/03/23 00:26:28;;;;;;;;;;;11.80;89.80;;;;;;5114932;28;19916;-69
2023/03/23 00:28:54;;;;;;;;;;;11.80;89.80;;;;;;5134749;28;19923;-69
2023/03/23 00:31:19;;;;;;;;;;;11.80;89.70;;;;;;5134664;28;19923;-70
2023/03/23 00:33:45;;;;;;;;;;;11.90;89.80;;;;;;5115062;28;19964;-70
2023/03/23 00:36:11;;;;;;;;;;;11.80;89.60;;;;;;5134599;28;19994;-70
2023/03/23 00:38:38;;;;;;;;;;;11.80;89.60;;;;;;5115710;28;19928;-70
2023/03/23 00:41:04;;;;;;;;;;;11.80;89.60;;;;;;5134569;28;19916;-70
2023/03/23 00:43:29;;;;;;;;;;;11.80;89.60;;;;;;5116133;28;19920;-70
2023/03/23 00:45:56;;;;;;;;;;;11.80;89.60;;;;;;5134472;28;19977;-69
2023/03/23 00:48:23;;;;;;;;;;;11.90;89.50;;;;;;5115383;28;20326;-69
2023/03/23 00:50:49;;;;;;;;;;;11.90;89.40;;;;;;5114418;28;19915;-70
2023/03/23 00:53:15;;;;;;;;;;;11.80;89.40;;;;;;5134518;28;20014;-70
2023/03/23 00:55:42;;;;;;;;;;;11.80;89.40;;;;;;5135057;28;19923;-71
2023/03/23 00:58:08;;;;;;;;;;;11.80;89.40;;;;;;5134297;28;19926;-71
2023/03/23 01:00:33;;;;;;;;;;;11.90;89.40;;;;;;5134268;28;20002;-69
2023/03/23 01:02:59;;;;;;;;;;;11.90;89.30;;;;;;5115597;28;20022;-69
2023/03/23 01:05:31;;;;;;;;;;;11.90;89.30;;;;;;5133981;28;19949;-70
2023/03/23 01:07:58;;;;;;;;;;;11.90;89.30;;;;;;5115144;28;19923;-69
2023/03/23 01:10:26;;;;;;;;;;;11.90;89.30;;;;;;5133933;28;20353;-69
2023/03/23 01:12:52;;;;;;;;;;;11.80;89.30;;;;;;5134028;28;19923;-70
2023/03/23 01:15:18;;;;;;;;;;;11.90;89.40;;;;;;5115505;28;19915;-69
2023/03/23 01:17:44;;;;;;;;;;;11.80;89.30;;;;;;5133703;28;19919;-70
2023/03/23 01:20:10;;;;;;;;;;;11.80;89.30;;;;;;5133633;28;20289;-69
2023/03/23 01:22:36;;;;;;;;;;;11.80;89.40;;;;;;5113379;28;19922;-69
2023/03/23 01:25:02;;;;;;;;;;;11.80;89.40;;;;;;5133609;28;20014;-70
2023/03/23 01:27:27;;;;;;;;;;;11.80;89.40;;;;;;5133564;28;20273;-69
2023/03/23 01:29:53;;;;;;;;;;;12.00;89.50;;;;;;5133618;28;20257;-70
2023/03/23 01:32:18;;;;;;;;;;;11.90;89.40;;;;;;5133565;28;20385;-70
2023/03/23 01:34:44;;;;;;;;;;;11.90;89.30;;;;;;5133836;28;20395;-70
2023/03/23 01:37:09;;;;;;;;;;;11.80;89.20;;;;;;5134180;28;19919;-70
2023/03/23 01:39:36;;;;;;;;;;;11.80;89.30;;;;;;5133514;28;19915;-70
2023/03/23 01:42:02;;;;;;;;;;;11.90;89.30;;;;;;5114279;28;20341;-70
2023/03/23 01:44:47;;;;;;;;;;;11.90;89.30;;;;;;5133567;28;19954;-69
2023/03/23 01:47:13;;;;;;;;;;;11.90;89.20;;;;;;5116546;28;19915;-70
2023/03/23 01:49:42;;;;;;;;;;;11.90;89.10;;;;;;5133471;28;20385;-69
2023/03/23 01:52:16;;;;;;;;;;;11.90;89.00;;;;;;5133490;28;19956;-69
2023/03/23 01:54:44;;;;;;;;;;;12.00;89.00;;;;;;5133447;28;19923;-70
2023/03/23 01:57:14;;;;;;;;;;;12.00;89.00;;;;;;5133278;28;19942;-70
2023/03/23 01:59:42;;;;;;;;;;;12.00;89.00;;;;;;5133577;28;19922;-69
2023/03/23 02:02:10;;;;;;;;;;;12.00;89.10;;;;;;5133250;27;19923;-70
2023/03/23 02:04:36;;;;;;;;;;;11.90;89.00;;;;;;5116995;28;19915;-69
2023/03/23 02:07:03;;;;;;;;;;;11.90;89.00;;;;;;5136913;28;20002;-69
2023/03/23 02:09:28;;;;;;;;;;;11.90;89.70;;;;;;5136884;28;20325;-70
2023/03/23 02:11:54;;;;;;;;;;;11.90;89.10;;;;;;5136859;28;19933;-69
2023/03/23 02:14:20;;;;;;;;;;;11.90;89.00;;;;;;5136704;28;19922;-70
2023/03/23 02:16:56;;;;;;;;;;;11.90;89.00;;;;;;5136661;28;19981;-69
2023/03/23 02:19:41;;;;;;;;;;;11.90;89.10;;;;;;5136684;28;19915;-69
2023/03/23 02:22:16;;;;;;;;;;;12.00;89.10;;;;;;5102817;28;19989;-69
2023/03/23 02:24:50;;;;;;;;;;;12.00;89.00;;;;;;5118025;28;19954;-69
2023/03/23 02:27:35;;;;;;;;;;;12.00;88.90;;;;;;5137055;28;19926;-69
2023/03/23 02:30:08;;;;;;;;;;;12.00;88.90;;;;;;5119660;28;19942;-69
2023/03/23 02:32:48;;;;;;;;;;;12.10;88.90;;;;;;5136387;28;19915;-70
2023/03/23 02:35:19;;;;;;;;;;;12.00;88.80;;;;;;5136361;28;19916;-69
2023/03/23 02:37:47;;;;;;;;;;;12.00;88.70;;;;;;5136205;28;20014;-70
2023/03/23 02:40:16;;;;;;;;;;;12.10;88.80;;;;;;5136352;28;20010;-70
2023/03/23 02:42:44;;;;;;;;;;;12.00;88.70;;;;;;5136291;28;19920;-70
2023/03/23 02:45:11;;;;;;;;;;;12.10;88.80;;;;;;5136283;28;20261;-70
2023/03/23 02:47:37;;;;;;;;;;;12.10;88.90;;;;;;5136817;28;19915;-69
2023/03/23 02:50:04;;;;;;;;;;;12.10;88.70;;;;;;5136141;28;19931;-69
2023/03/23 02:52:31;;;;;;;;;;;12.10;88.70;;;;;;5136103;28;20265;-69
2023/03/23 02:54:59;;;;;;;;;;;12.10;88.60;;;;;;5116225;28;20360;-69
2023/03/23 02:57:26;;;;;;;;;;;12.10;88.60;;;;;;5136131;28;20361;-70
2023/03/23 02:59:51;;;;;;;;;;;12.10;88.60;;;;;;5136052;28;20023;-70
2023/03/23 03:02:18;;;;;;;;;;;12.20;88.60;;;;;;5135960;28;19916;-69
2023/03/23 03:04:48;;;;;;;;;;;12.10;88.50;;;;;;5117696;28;19916;-70
2023/03/23 03:07:35;;;;;;;;;;;12.20;88.50;;;;;;5116143;28;19959;-70
2023/03/23 03:10:04;;;;;;;;;;;12.20;88.50;;;;;;5133009;28;20337;-69
2023/03/23 03:12:35;;;;;;;;;;;12.20;88.50;;;;;;5132808;28;19919;-70
2023/03/23 03:15:08;;;;;;;;;;;12.20;88.40;;;;;;5132661;27;19921;-70
2023/03/23 03:17:39;;;;;;;;;;;12.20;88.40;;;;;;5133381;28;19969;-70
2023/03/23 03:20:08;;;;;;;;;;;12.20;88.50;;;;;;5135642;28;19921;-69
2023/03/23 03:22:37;;;;;;;;;;;12.20;88.40;;;;;;5117413;28;20322;-70
2023/03/23 03:25:03;;;;;;;;;;;12.20;88.40;;;;;;5135888;28;19915;-70
2023/03/23 03:27:28;;;;;;;;;;;12.20;88.40;;;;;;5135631;28;20420;-69
2023/03/23 03:29:56;;;;;;;;;;;12.20;88.40;;;;;;5116554;28;20006;-69
2023/03/23 03:32:24;;;;;;;;;;;12.30;88.40;;;;;;5136065;28;19915;-70
2023/03/23 03:34:50;;;;;;;;;;;12.20;88.30;;;;;;5135485;28;19998;-70
2023/03/23 03:37:16;;;;;;;;;;;12.20;88.30;;;;;;5117496;28;20018;-70
2023/03/23 03:39:42;;;;;;;;;;;12.20;88.40;;;;;;5116507;28;21208;-69
2023/03/23 03:42:08;;;;;;;;;;;12.20;88.30;;;;;;5135372;28;19915;-70
2023/03/23 03:44:33;;;;;;;;;;;12.20;88.30;;;;;;5135477;28;19964;-70
2023/03/23 03:46:59;;;;;;;;;;;12.30;88.40;;;;;;5135099;28;20375;-69
2023/03/23 03:49:25;;;;;;;;;;;12.20;88.20;;;;;;5135133;28;19915;-69
2023/03/23 03:51:51;;;;;;;;;;;12.30;88.30;;;;;;5114979;28;20002;-70
2023/03/23 03:54:16;;;;;;;;;;;12.20;88.20;;;;;;5135022;28;20009;-69
2023/03/23 03:56:42;;;;;;;;;;;12.30;88.30;;;;;;5134698;28;19922;-69
2023/03/23 03:59:09;;;;;;;;;;;12.20;88.30;;;;;;5135003;28;20369;-69
2023/03/23 04:01:35;;;;;;;;;;;12.30;88.30;;;;;;5134987;28;19922;-69
2023/03/23 04:04:01;;;;;;;;;;;12.30;88.30;;;;;;5098712;28;20366;-70
2023/03/23 04:06:27;;;;;;;;;;;12.30;88.20;;;;;;5115232;28;20014;-69
2023/03/23 04:08:56;;;;;;;;;;;12.40;88.10;;;;;;5116935;28;19915;-69
2023/03/23 04:11:22;;;;;;;;;;;12.30;88.10;;;;;;5116330;28;20357;-69
2023/03/23 04:13:47;;;;;;;;;;;12.30;88.00;;;;;;5134718;28;19916;-70
2023/03/23 04:16:13;;;;;;;;;;;12.40;88.10;;;;;;5134865;28;20405;-69
2023/03/23 04:18:38;;;;;;;;;;;12.30;88.00;;;;;;5134683;28;20379;-69
2023/03/23 04:21:04;;;;;;;;;;;12.40;88.00;;;;;;5134734;28;20020;-70
2023/03/23 04:23:33;;;;;;;;;;;12.40;87.90;;;;;;5134719;28;19922;-70
2023/03/23 04:25:58;;;;;;;;;;;12.40;88.00;;;;;;5134004;27;20365;-70
2023/03/23 04:28:24;;;;;;;;;;;12.40;87.90;;;;;;5115809;28;19922;-69
2023/03/23 04:30:54;;;;;;;;;;;12.50;87.90;;;;;;5135004;28;19962;-70
2023/03/23 04:33:21;;;;;;;;;;;12.40;87.80;;;;;;5134551;28;19966;-70
2023/03/23 04:35:47;;;;;;;;;;;12.40;87.80;;;;;;5134343;28;19919;-69
2023/03/23 04:38:14;;;;;;;;;;;12.50;87.80;;;;;;5134271;28;19923;-69
2023/03/23 04:40:40;;;;;;;;;;;12.40;87.80;;;;;;5134352;28;19972;-70
2023/03/23 04:43:06;;;;;;;;;;;12.60;87.80;;;;;;5134407;28;19915;-69
2023/03/23 04:45:33;;;;;;;;;;;12.50;87.60;;;;;;5134447;28;20369;-70
2023/03/23 04:47:58;;;;;;;;;;;12.50;87.50;;;;;;5134496;28;19915;-70
2023/03/23 04:50:27;;;;;;;;;;;12.50;87.50;;;;;;5134169;28;19923;-70
2023/03/23 04:52:53;;;;;;;;;;;12.50;87.50;;;;;;5134279;28;20357;-70
2023/03/23 04:55:20;;;;;;;;;;;12.50;87.50;;;;;;5134395;28;20057;-70
2023/03/23 04:57:46;;;;;;;;;;;12.50;87.50;;;;;;5115462;28;19919;-69
2023/03/23 05:00:14;;;;;;;;;;;12.50;87.40;;;;;;5134193;28;20059;-70
2023/03/23 05:02:40;;;;;;;;;;;12.50;87.30;;;;;;5134344;28;19915;-69
2023/03/23 05:05:07;;;;;;;;;;;12.50;87.90;;;;;;5134330;28;20360;-69
2023/03/23 05:07:33;;;;;;;;;;;12.50;87.30;;;;;;5134314;28;19923;-70
2023/03/23 05:09:58;;;;;;;;;;;12.50;87.30;;;;;;5134186;28;19923;-69
2023/03/23 05:12:24;;;;;;;;;;;12.60;87.30;;;;;;5134140;28;20288;-69
2023/03/23 05:14:49;;;;;;;;;;;12.60;87.20;;;;;;5134065;28;19916;-69
2023/03/23 05:17:16;;;;;;;;;;;12.50;87.10;;;;;;5134445;28;19926;-70
2023/03/23 05:19:47;;;;;;;;;;;12.50;87.20;;;;;;5133999;28;19950;-69
2023/03/23 05:22:14;;;;;;;;;;;12.50;87.10;;;;;;5133959;28;19954;-69
2023/03/23 05:24:40;;;;;;;;;;;12.50;87.10;;;;;;5133942;28;19916;-70
2023/03/23 05:27:07;;;;;;;;;;;12.50;87.10;;;;;;5133893;28;19911;-69
2023/03/23 05:29:35;;;;;;;;;;;12.50;87.10;;;;;;5133911;28;19911;-70
2023/03/23 05:32:02;;;;;;;;;;;12.50;87.10;;;;;;5115521;28;19954;-70
2023/03/23 05:34:28;;;;;;;;;;;12.50;87.10;;;;;;5133662;28;20006;-70
2023/03/23 05:36:57;;;;;;;;;;;12.50;87.10;;;;;;5133296;27;20257;-70
2023/03/23 05:39:22;;;;;;;;;;;12.50;87.10;;;;;;5133470;28;19915;-69
2023/03/23 05:41:48;;;;;;;;;;;12.50;87.10;;;;;;5097169;28;19922;-70
2023/03/23 05:44:14;;;;;;;;;;;12.40;87.00;;;;;;5133712;28;19915;-69
2023/03/23 05:46:40;;;;;;;;;;;12.50;87.00;;;;;;5133727;28;20416;-68
2023/03/23 05:49:05;;;;;;;;;;;12.40;87.00;;;;;;5133798;28;19957;-69
2023/03/23 05:51:31;;;;;;;;;;;12.40;86.90;;;;;;5133798;28;19964;-70
2023/03/23 05:53:56;;;;;;;;;;;12.40;87.00;;;;;;5133675;28;20014;-69
2023/03/23 05:56:22;;;;;;;;;;;12.50;86.90;;;;;;5133616;28;19964;-70
2023/03/23 05:58:47;;;;;;;;;;;12.50;86.80;;;;;;5133429;28;20013;-70
2023/03/23 06:01:13;;;;;;;;;;;12.50;86.80;;;;;;5133380;28;19916;-70
2023/03/23 06:03:39;;;;;;;;;;;12.50;86.80;;;;;;5133377;28;19916;-70
2023/03/23 06:06:05;;;;;;;;;;;12.40;86.70;;;;;;5133405;28;19923;-70
2023/03/23 06:08:30;;;;;;;;;;;12.40;86.70;;;;;;5133400;28;19961;-70
2023/03/23 06:10:56;;;;;;;;;;;12.50;86.80;;;;;;5133423;28;20377;-70
2023/03/23 06:13:22;;;;;;;;;;;12.50;86.80;;;;;;5133276;28;19922;-70
2023/03/23 06:15:48;;;;;;;;;;;12.40;86.70;;;;;;5133145;28;19916;-70
2023/03/23 06:18:14;;;;;;;;;;;12.60;86.80;;;;;;5133048;28;19925;-70
2023/03/23 06:20:40;;;;;;;;;;;12.50;86.80;;;;;;5114011;28;19919;-68
2023/03/23 06:23:06;;;;;;;;;;;12.50;86.80;;;;;;5133258;28;19919;-70
2023/03/23 06:25:32;;;;;;;;;;;12.50;86.70;;;;;;5114857;28;20322;-71
2023/03/23 06:27:58;;;;;;;;;;;12.50;86.60;;;;;;5133196;28;19950;-70
2023/03/23 06:30:24;;;;;;;;;;;12.50;86.50;;;;;;5133146;28;20379;-70
2023/03/23 06:32:50;;;;;;;;;;;12.60;86.50;;;;;;5133075;28;20006;-70
2023/03/23 06:35:16;;;;;;;;;;;12.60;86.40;;;;;;5114760;28;20322;-70
2023/03/23 06:37:41;;;;;;;;;;;12.60;86.30;;;;;;5133165;28;19929;-70
2023/03/23 06:40:09;;;;;;;;;;;12.60;86.30;;;;;;5133189;28;19967;-70
2023/03/23 06:42:35;;;;;;;;;;;12.60;86.30;;;;;;5114818;28;19915;-70
2023/03/23 06:45:02;;;;;;;;;;;12.50;86.30;;;;;;5132973;28;19922;-70
2023/03/23 06:47:30;;;;;;;;;;;12.50;86.30;;;;;;5132911;28;19916;-70
2023/03/23 06:49:56;;;;;;;;;;;12.60;86.30;;;;;;5134981;27;19919;-70
2023/03/23 06:52:22;;;;;;;;;;;12.50;86.40;;;;;;5136281;28;20350;-71
2023/03/23 06:54:48;;;;;;;;;;;12.50;86.40;;;;;;5136389;28;19923;-71
2023/03/23 06:57:14;;;;;;;;;;;12.60;86.40;;;;;;5136305;28;20280;-70
2023/03/23 06:59:41;;;;;;;;;;;12.50;86.30;;;;;;5117891;28;19923;-70
2023/03/23 07:02:09;;;;;;;;;;;12.60;86.30;;;;;;5136136;28;20349;-71
2023/03/23 07:04:35;;;;;;;;;;;12.60;86.20;;;;;;5136569;28;19923;-70
2023/03/23 07:07:01;;;;;;;;;;;12.60;86.20;;;;;;5136142;28;19976;-70
2023/03/23 07:09:27;;;;;;;;;;;12.60;86.10;;;;;;5136261;28;19919;-70
2023/03/23 07:11:52;;;;;;;;;;;12.60;86.00;;;;;;5136192;28;19915;-70
2023/03/23 07:14:18;;;;;;;;;;;12.60;86.00;;;;;;5136069;28;19938;-70
2023/03/23 07:16:43;;;;;;;;;;;12.60;86.00;;;;;;5135894;28;20353;-70
2023/03/23 07:19:09;;;;;;;;;;;12.60;86.00;;;;;;5135985;28;20006;-70
2023/03/23 07:21:34;;;;;;;;;;;12.70;86.00;;;;;;5116392;28;19954;-70
2023/03/23 07:24:00;;;;;;;;;;;12.60;86.00;;;;;;5135926;28;19922;-70
2023/03/23 07:26:26;;;;;;;;;;;12.60;86.00;;;;;;5135720;28;19916;-70
2023/03/23 07:28:51;;;;;;;;;;;12.60;86.00;;;;;;5135745;28;20270;-70
2023/03/23 07:31:17;;;;;;;;;;;12.70;86.10;;;;;;5116241;28;19915;-70
2023/03/23 07:33:43;;;;;;;;;;;12.60;86.00;;;;;;5117546;28;19922;-70
2023/03/23 07:36:09;;;;;;;;;;;12.60;86.00;;;;;;5135787;28;19915;-70
2023/03/23 07:38:35;;;;;;;;;;;12.60;85.90;;;;;;5136182;28;19920;-70
2023/03/23 07:41:01;;;;;;;;;;;12.60;86.00;;;;;;5136216;28;19954;-70
2023/03/23 07:43:27;;;;;;;;;;;12.60;85.90;;;;;;5136050;28;20250;-71
2023/03/23 07:45:52;;;;;;;;;;;12.50;85.90;;;;;;5135731;28;19922;-70
2023/03/23 07:48:18;;;;;;;;;;;12.40;85.90;;;;;;5135920;28;19916;-71
2023/03/23 07:50:43;;;;;;;;;;;12.40;86.10;;;;;;5135629;28;20030;-70
2023/03/23 07:53:09;;;;;;;;;;;12.60;86.20;;;;;;5136172;28;19921;-71
2023/03/23 07:55:35;;;;;;;;;;;12.40;86.20;;;;;;5135506;28;19946;-71
2023/03/23 07:58:00;;;;;;;;;;;12.40;86.30;;;;;;5116445;28;19983;-71
2023/03/23 08:00:26;;;;;;;;;;;12.30;86.40;;;;;;5134502;27;19970;-71
2023/03/23 08:02:56;;;;;;;;;;;12.20;86.50;;;;;;5135159;28;20333;-70
2023/03/23 08:05:21;;;;;;;;;;;12.20;86.50;;;;;;5135357;28;19922;-71
2023/03/23 08:07:48;;;;;;;;;;;12.10;86.70;;;;;;5116856;28;19920;-70
2023/03/23 08:10:14;;;;;;;;;;;12.10;86.80;;;;;;5135155;28;19962;-71
2023/03/23 08:12:41;;;;;;;;;;;12.10;87.00;;;;;;5135188;28;19923;-71
2023/03/23 08:15:07;;;;;;;;;;;12.00;87.10;;;;;;5135699;28;19951;-71
2023/03/23 08:17:34;;;;;;;;;;;12.00;87.20;;;;;;5116726;28;19935;-70
2023/03/23 08:20:00;;;;;;;;;;;12.00;87.20;;;;;;5134991;28;19972;-70
2023/03/23 08:22:25;;;;;;;;;;;12.10;87.40;;;;;;5135073;28;19919;-70
2023/03/23 08:24:51;;;;;;;;;;;12.00;87.40;;;;;;5134936;28;19916;-70
2023/03/23 08:27:17;;;;;;;;;;;12.10;87.40;;;;;;5134984;28;19915;-70
2023/03/23 08:29:45;;;;;;;;;;;12.10;87.30;;;;;;5135244;28;19915;-71
2023/03/23 08:32:11;;;;;;;;;;;12.10;87.30;;;;;;5131404;28;19916;-70
2023/03/23 08:34:37;;;;;;;;;;;12.00;87.20;;;;;;5135478;28;19916;-71
2023/03/23 08:37:03;;;;;;;;;;;12.10;87.30;;;;;;5135082;28;19922;-70
2023/03/23 08:39:30;;;;;;;;;;;12.20;87.30;;;;;;5135049;28;19916;-70
2023/03/23 08:41:55;;;;;;;;;;;12.10;87.30;;;;;;5134626;28;20142;-71
2023/03/23 08:44:21;;;;;;;;;;;12.20;87.30;;;;;;5134615;28;20046;-71
2023/03/23 08:46:46;;;;;;;;;;;12.20;87.30;;;;;;5134996;28;19923;-70
2023/03/23 08:49:12;;;;;;;;;;;12.20;87.20;;;;;;5134405;28;20338;-71
2023/03/23 08:51:37;;;;;;;;;;;12.30;87.00;;;;;;5134353;28;20014;-71
2023/03/23 08:54:03;;;;;;;;;;;12.30;87.00;;;;;;5134398;28;19958;-71
2023/03/23 08:56:28;;;;;;;;;;;12.30;87.00;;;;;;5134356;28;19968;-71
2023/03/23 08:58:54;;;;;;;;;;;12.40;87.00;;;;;;5134196;28;20300;-70
2023/03/23 09:01:20;;;;;;;;;;;12.40;86.80;;;;;;5134340;28;20390;-71
2023/03/23 09:03:45;;;;;;;;;;;12.30;86.70;;;;;;5134140;28;19938;-70
2023/03/23 09:06:12;;;;;;;;;;;12.40;86.80;;;;;;5134241;28;19923;-70
2023/03/23 09:08:38;;;;;;;;;;;12.30;86.80;;;;;;5134205;28;19965;-70
2023/03/23 09:11:06;;;;;;;;;;;12.40;86.90;;;;;;5134747;28;19915;-71
2023/03/23 09:13:32;;;;;;;;;;;12.30;86.80;;;;;;5134268;27;19915;-71
2023/03/23 09:15:58;;;;;;;;;;;12.40;86.90;;;;;;5134220;28;19919;-70
2023/03/23 09:18:24;;;;;;;;;;;12.40;86.90;;;;;;5134065;28;20287;-70
2023/03/23 09:20:50;;;;;;;;;;;12.40;86.90;;;;;;5134793;28;19915;-70
2023/03/23 09:23:16;;;;;;;;;;;12.40;86.80;;;;;;5134688;28;20253;-70
2023/03/23 09:25:42;;;;;;;;;;;12.50;86.70;;;;;;5134057;28;19919;-70
2023/03/23 09:28:08;;;;;;;;;;;12.50;86.40;;;;;;5134013;28;19916;-71
2023/03/23 09:30:36;;;;;;;;;;;12.50;86.20;;;;;;5134377;28;20403;-70
2023/03/23 09:33:02;;;;;;;;;;;12.50;86.20;;;;;;5133888;28;20022;-70
2023/03/23 09:35:28;;;;;;;;;;;12.60;86.30;;;;;;5134022;28;19915;-70
2023/03/23 09:37:54;;;;;;;;;;;12.60;86.20;;;;;;5133788;28;19919;-71
2023/03/23 09:40:20;;;;;;;;;;;12.70;86.10;;;;;;5115355;28;20269;-70
2023/03/23 09:42:51;;;;;;;;;;;12.70;85.80;;;;;;5133863;28;19922;-70
2023/03/23 09:45:32;;;;;;;;;;;12.80;85.70;;;;;;5114694;28;19950;-70
2023/03/23 09:48:12;;;;;;;;;;;12.80;85.60;;;;;;5115319;28;20281;-70
2023/03/23 09:50:40;;;;;;;;;;;12.80;85.70;;;;;;5133738;28;20357;-70
2023/03/23 09:53:17;;;;;;;;;;;12.90;85.70;;;;;;5115089;28;19923;-70
2023/03/23 09:55:42;;;;;;;;;;;13.00;85.50;;;;;;5134202;28;19938;-70
2023/03/23 09:58:28;;;;;;;;;;;13.10;85.40;;;;;;5133472;28;19927;-70
2023/03/23 10:01:02;;;;;;;;;;;13.10;85.30;;;;;;5117516;28;20060;-70
2023/03/23 10:03:31;;;;;;;;;;;13.20;85.00;;;;;;5113205;28;20284;-70
2023/03/23 10:05:57;;;;;;;;;;;13.30;84.80;;;;;;5133688;28;19923;-70
2023/03/23 10:08:24;;;;;;;;;;;13.40;84.50;;;;;;5133509;28;19923;-70
2023/03/23 10:10:57;;;;;;;;;;;13.50;84.40;;;;;;5133454;28;19963;-70
2023/03/23 10:13:32;;;;;;;;;;;13.50;84.30;;;;;;5133457;28;20020;-70
2023/03/23 10:15:58;;;;;;;;;;;13.50;84.00;;;;;;5133355;28;19915;-70
2023/03/23 10:18:27;;;;;;;;;;;13.60;83.90;;;;;;5133310;28;20010;-70
2023/03/23 10:20:56;;;;;;;;;;;13.60;83.70;;;;;;5133356;28;20006;-70
2023/03/23 10:23:38;;;;;;;;;;;13.70;83.80;;;;;;5133331;27;20272;-70
2023/03/23 10:26:12;;;;;;;;;;;13.80;83.40;;;;;;5136897;28;19916;-70
2023/03/23 10:28:41;;;;;;;;;;;13.90;83.40;;;;;;5136786;28;19916;-71
2023/03/23 10:31:09;;;;;;;;;;;14.00;83.10;;;;;;5136861;28;19923;-70
2023/03/23 10:33:42;;;;;;;;;;;14.20;82.90;;;;;;5136785;28;20009;-70
2023/03/23 10:36:19;;;;;;;;;;;14.20;82.50;;;;;;5117091;28;19915;-70
2023/03/23 10:38:48;;;;;;;;;;;14.20;82.30;;;;;;5137179;28;19934;-70
2023/03/23 10:41:16;;;;;;;;;;;14.30;81.80;;;;;;5136604;28;19923;-70
2023/03/23 10:43:43;;;;;;;;;;;14.20;81.90;;;;;;5100136;28;19927;-70
2023/03/23 10:46:22;;;;;;;;;;;14.30;82.40;;;;;;5136658;28;19984;-71
2023/03/23 10:48:49;;;;;;;;;;;14.30;81.90;;;;;;5136639;28;19962;-70
2023/03/23 10:51:19;;;;;;;;;;;14.50;81.90;;;;;;5136459;28;20005;-70
2023/03/23 10:53:47;;;;;;;;;;;14.40;81.30;;;;;;5136393;28;19916;-70
2023/03/23 10:56:25;;;;;;;;;;;14.50;81.40;;;;;;5136447;28;20401;-70
2023/03/23 10:58:51;;;;;;;;;;;14.50;81.20;;;;;;5136287;28;19942;-70
2023/03/23 11:01:18;;;;;;;;;;;14.50;80.90;;;;;;5136316;28;19916;-71
2023/03/23 11:03:48;;;;;;;;;;;14.50;81.10;;;;;;5136369;28;19994;-70
2023/03/23 11:06:23;;;;;;;;;;;14.50;81.30;;;;;;5136359;28;19916;-71
2023/03/23 11:08:52;;;;;;;;;;;14.60;81.50;;;;;;5136162;28;19919;-71
2023/03/23 11:11:20;;;;;;;;;;;14.70;81.20;;;;;;5117863;28;19915;-71
2023/03/23 11:13:46;;;;;;;;;;;14.70;81.00;;;;;;5117793;28;19916;-70
2023/03/23 11:16:23;;;;;;;;;;;14.90;80.70;;;;;;5136189;28;19922;-71
2023/03/23 11:18:49;;;;;;;;;;;15.00;79.80;;;;;;5136012;28;20288;-70
2023/03/23 11:21:14;;;;;;;;;;;15.00;79.80;;;;;;5115957;28;20010;-70
2023/03/23 11:23:42;;;;;;;;;;;15.10;80.10;;;;;;5135972;28;19915;-71
2023/03/23 11:26:24;;;;;;;;;;;15.20;79.90;;;;;;5135955;28;19921;-71
2023/03/23 11:29:04;;;;;;;;;;;15.30;79.70;;;;;;5135905;28;19967;-70
2023/03/23 11:31:32;;;;;;;;;;;15.30;79.20;;;;;;5131980;28;19922;-70
2023/03/23 11:34:02;;;;;;;;;;;15.40;79.10;;;;;;5117235;28;20006;-71
2023/03/23 11:36:30;;;;;;;;;;;15.50;78.70;;;;;;5135765;27;19921;-70
2023/03/23 11:38:57;;;;;;;;;;;15.40;78.40;;;;;;5135646;28;19919;-70
2023/03/23 11:41:23;;;;;;;;;;;15.30;78.50;;;;;;5135658;28;20424;-69
2023/03/23 11:43:51;;;;;;;;;;;15.10;78.70;;;;;;5115512;28;20365;-69
2023/03/23 11:46:36;;;;;;;;;;;15.00;79.20;;;;;;5135605;28;19915;-71
2023/03/23 11:49:04;;;;;;;;;;;15.00;79.60;;;;;;5119614;28;19915;-71
2023/03/23 11:51:37;;;;;;;;;;;14.90;79.80;;;;;;5135567;28;20014;-71
2023/03/23 11:54:09;;;;;;;;;;;14.90;80.00;;;;;;5135479;28;19955;-69
2023/03/23 11:56:36;;;;;;;;;;;14.80;80.20;;;;;;5131471;28;20018;-71
2023/03/23 11:59:03;;;;;;;;;;;14.80;80.40;;;;;;5135402;28;19926;-69
2023/03/23 12:01:34;;;;;;;;;;;14.70;80.50;;;;;;5135468;28;19973;-70
2023/03/23 12:04:05;;;;;;;;;;;14.60;80.60;;;;;;5135360;28;19915;-69
2023/03/23 12:06:35;;;;;;;;;;;14.60;80.90;;;;;;5135325;28;20321;-68
2023/03/23 12:09:07;;;;;;;;;;;14.30;81.20;;;;;;5135839;28;19919;-69
2023/03/23 12:11:41;;;;;;;;;;;14.20;81.80;;;;;;5135464;28;20318;-68
2023/03/23 12:14:17;;;;;;;;;;;14.10;82.20;;;;;;5135456;28;19915;-69
2023/03/23 12:16:53;;;;;;;;;;;14.00;82.40;;;;;;5132330;28;19911;-69
2023/03/23 12:19:39;;;;;;;;;;;14.00;82.60;;;;;;5133434;28;19931;-70
2023/03/23 12:22:17;;;;;;;;;;;13.90;82.90;;;;;;5119840;28;20023;-71
2023/03/23 12:24:51;;;;;;;;;;;14.10;83.00;;;;;;5134951;28;19959;-70
2023/03/23 12:27:29;;;;;;;;;;;14.30;82.70;;;;;;5134899;28;20015;-71
2023/03/23 12:30:01;;;;;;;;;;;14.30;82.40;;;;;;5135337;28;20276;-71
2023/03/23 12:32:34;;;;;;;;;;;14.40;82.20;;;;;;5134998;28;19915;-70
2023/03/23 12:35:05;;;;;;;;;;;14.50;82.10;;;;;;5134814;28;19915;-70
2023/03/23 12:37:38;;;;;;;;;;;14.60;81.70;;;;;;5134779;28;20003;-71
2023/03/23 12:40:08;;;;;;;;;;;14.70;81.70;;;;;;5134685;28;20007;-70
2023/03/23 12:42:48;;;;;;;;;;;14.70;81.30;;;;;;5134726;28;19922;-70
2023/03/23 12:45:21;;;;;;;;;;;14.70;81.30;;;;;;5134692;28;20417;-70
2023/03/23 12:47:57;;;;;;;;;;;14.70;81.10;;;;;;5134060;27;19938;-70
2023/03/23 12:50:31;;;;;;;;;;;14.70;81.10;;;;;;5134739;28;20388;-70
2023/03/23 12:53:04;;;;;;;;;;;14.70;81.10;;;;;;5134622;28;20046;-70
2023/03/23 12:55:36;;;;;;;;;;;14.60;81.20;;;;;;5134547;28;19915;-70
2023/03/23 12:58:05;;;;;;;;;;;14.50;81.30;;;;;;5130503;28;19927;-70
2023/03/23 13:00:51;;;;;;;;;;;14.40;81.20;;;;;;5114032;28;20030;-70
2023/03/23 13:03:20;;;;;;;;;;;14.40;81.20;;;;;;5134921;28;19921;-70
2023/03/23 13:05:54;;;;;;;;;;;14.20;81.30;;;;;;5134307;28;19912;-71
2023/03/23 13:08:24;;;;;;;;;;;13.70;82.10;;;;;;5134236;28;19916;-72
2023/03/23 13:10:53;;;;;;;;;;;13.40;83.20;;;;;;5134173;28;19911;-72
2023/03/23 13:13:22;;;;;;;;;;;13.10;84.10;;;;;;5134172;28;19915;-72
2023/03/23 13:15:55;;;;;;;;;;;13.00;84.50;;;;;;5115549;28;19911;-71
2023/03/23 13:18:27;;;;;;;;;;;12.90;84.80;;;;;;5134150;28;19971;-72
2023/03/23 13:20:58;;;;;;;;;;;12.80;85.00;;;;;;5134188;28;19923;-70
2023/03/23 13:23:28;;;;;;;;;;;12.70;85.30;;;;;;5134051;28;19915;-71
2023/03/23 13:25:59;;;;;;;;;;;12.60;85.40;;;;;;5134118;28;19915;-72
2023/03/23 13:28:28;;;;;;;;;;;12.60;85.60;;;;;;5134493;28;19915;-71
2023/03/23 13:30:57;;;;;;;;;;;12.60;85.50;;;;;;5113821;28;19985;-72
2023/03/23 13:33:22;;;;;;;;;;;12.50;85.50;;;;;;5134061;28;19989;-71
2023/03/23 13:35:49;;;;;;;;;;;12.60;85.60;;;;;;5116174;28;19928;-71
2023/03/23 13:38:20;;;;;;;;;;;12.70;86.20;;;;;;5133829;28;19920;-71
2023/03/23 13:40:46;;;;;;;;;;;12.80;85.20;;;;;;5133739;28;19916;-71
2023/03/23 13:43:12;;;;;;;;;;;13.00;84.90;;;;;;5133905;28;19998;-71
2023/03/23 13:45:46;;;;;;;;;;;13.10;84.50;;;;;;5134016;28;19921;-71
2023/03/23 13:48:21;;;;;;;;;;;13.10;84.40;;;;;;5130510;28;19964;-71
2023/03/23 13:50:56;;;;;;;;;;;13.10;84.40;;;;;;5131628;28;19915;-71
2023/03/23 13:53:32;;;;;;;;;;;13.20;84.60;;;;;;5133465;28;19916;-71
2023/03/23 13:56:17;;;;;;;;;;;13.30;84.50;;;;;;5133528;28;19916;-71
2023/03/23 13:58:45;;;;;;;;;;;13.40;84.30;;;;;;5133626;27;20010;-72
2023/03/23 14:01:16;;;;;;;;;;;13.40;84.20;;;;;;5117006;28;20417;-72
2023/03/23 14:03:43;;;;;;;;;;;13.40;84.10;;;;;;5137395;28;19920;-72
2023/03/23 14:06:25;;;;;;;;;;;13.40;84.10;;;;;;5137260;28;19915;-72
2023/03/23 14:08:52;;;;;;;;;;;13.50;84.20;;;;;;5137180;28;19919;-72
2023/03/23 14:11:27;;;;;;;;;;;13.40;84.30;;;;;;5137099;28;20295;-73
2023/03/23 14:14:03;;;;;;;;;;;13.40;84.30;;;;;;5137721;28;19938;-72
2023/03/23 14:16:32;;;;;;;;;;;13.40;84.50;;;;;;5137155;28;19972;-72
2023/03/23 14:19:00;;;;;;;;;;;13.30;84.60;;;;;;5136926;28;19945;-72
2023/03/23 14:21:42;;;;;;;;;;;13.30;84.70;;;;;;5137036;28;19922;-72
2023/03/23 14:24:12;;;;;;;;;;;13.30;84.80;;;;;;5136888;28;20288;-72